sensor_id;sensor_type;location;lat;lon;timestamp;temperature;humidity
46159;DHT22;31888;44.512;26.104;2022-08-21T00:01:10;26.00;86.70
46159;DHT22;31888;44.512;26.104;2022-08-21T00:03:16;25.90;86.60
46159;DHT22;31888;44.512;26.104;2022-08-21T00:05:21;25.80;86.90
46159;DHT22;31888;44.512;26.104;2022-08-21T00:07:25;25.70;87.40
46159;DHT22;31888;44.512;26.104;2022-08-21T00:09:31;25.80;87.80
46159;DHT22;31888;44.512;26.104;2022-08-21T00:11:38;25.50;88.10
46159;DHT22;31888;44.512;26.104;2022-08-21T00:13:42;25.50;88.90
46159;DHT22;31888;44.512;26.104;2022-08-21T00:15:48;25.50;89.10
46159;DHT22;31888;44.512;26.104;2022-08-21T00:17:52;25.40;89.10
46159;DHT22;31888;44.512;26.104;2022-08-21T00:19:57;25.30;89.50
46159;DHT22;31888;44.512;26.104;2022-08-21T00:22:01;25.30;89.80
46159;DHT22;31888;44.512;26.104;2022-08-21T00:24:08;25.20;90.10
46159;DHT22;31888;44.512;26.104;2022-08-21T00:26:14;25.10;90.10
46159;DHT22;31888;44.512;26.104;2022-08-21T00:28:28;25.10;90.40
46159;DHT22;31888;44.512;26.104;2022-08-21T00:30:34;25.10;90.50
46159;DHT22;31888;44.512;26.104;2022-08-21T00:32:45;24.90;90.70
46159;DHT22;31888;44.512;26.104;2022-08-21T00:34:52;24.90;90.80
46159;DHT22;31888;44.512;26.104;2022-08-21T00:36:57;24.80;91.10
46159;DHT22;31888;44.512;26.104;2022-08-21T00:39:03;24.80;91.20
46159;DHT22;31888;44.512;26.104;2022-08-21T00:41:10;24.70;91.40
46159;DHT22;31888;44.512;26.104;2022-08-21T00:43:38;24.60;91.70
46159;DHT22;31888;44.512;26.104;2022-08-21T00:45:42;24.50;91.90
46159;DHT22;31888;44.512;26.104;2022-08-21T00:47:47;24.50;92.10
46159;DHT22;31888;44.512;26.104;2022-08-21T00:49:52;24.50;92.30
46159;DHT22;31888;44.512;26.104;2022-08-21T00:51:59;24.40;92.70
46159;DHT22;31888;44.512;26.104;2022-08-21T00:54:06;24.40;92.60
46159;DHT22;31888;44.512;26.104;2022-08-21T00:56:21;24.30;92.90
46159;DHT22;31888;44.512;26.104;2022-08-21T00:58:28;24.30;93.00
46159;DHT22;31888;44.512;26.104;2022-08-21T01:00:38;24.10;93.40
46159;DHT22;31888;44.512;26.104;2022-08-21T01:02:43;24.10;93.70
46159;DHT22;31888;44.512;26.104;2022-08-21T01:04:48;24.00;94.10
46159;DHT22;31888;44.512;26.104;2022-08-21T01:06:53;23.90;94.20
46159;DHT22;31888;44.512;26.104;2022-08-21T01:08:58;24.00;94.40
46159;DHT22;31888;44.512;26.104;2022-08-21T01:11:03;23.90;94.70
46159;DHT22;31888;44.512;26.104;2022-08-21T01:13:09;23.80;94.90
46159;DHT22;31888;44.512;26.104;2022-08-21T01:15:14;23.80;94.90
46159;DHT22;31888;44.512;26.104;2022-08-21T01:17:22;23.90;95.00
46159;DHT22;31888;44.512;26.104;2022-08-21T01:19:27;23.80;95.20
46159;DHT22;31888;44.512;26.104;2022-08-21T01:21:33;23.80;95.40
46159;DHT22;31888;44.512;26.104;2022-08-21T01:23:41;23.90;95.30
46159;DHT22;31888;44.512;26.104;2022-08-21T01:25:45;23.90;95.30
46159;DHT22;31888;44.512;26.104;2022-08-21T01:27:50;23.70;95.80
46159;DHT22;31888;44.512;26.104;2022-08-21T01:29:57;23.70;95.90
46159;DHT22;31888;44.512;26.104;2022-08-21T01:32:06;23.70;96.00
46159;DHT22;31888;44.512;26.104;2022-08-21T01:34:11;23.80;96.00
46159;DHT22;31888;44.512;26.104;2022-08-21T01:36:15;23.70;96.30
46159;DHT22;31888;44.512;26.104;2022-08-21T01:38:21;23.70;96.50
46159;DHT22;31888;44.512;26.104;2022-08-21T01:40:26;23.70;96.40
46159;DHT22;31888;44.512;26.104;2022-08-21T01:42:31;23.70;96.40
46159;DHT22;31888;44.512;26.104;2022-08-21T01:44:35;23.60;96.60
46159;DHT22;31888;44.512;26.104;2022-08-21T01:46:40;23.60;96.90
46159;DHT22;31888;44.512;26.104;2022-08-21T01:48:44;23.50;97.00
46159;DHT22;31888;44.512;26.104;2022-08-21T01:50:48;23.50;97.10
46159;DHT22;31888;44.512;26.104;2022-08-21T01:52:58;23.50;97.30
46159;DHT22;31888;44.512;26.104;2022-08-21T01:55:06;23.50;97.30
46159;DHT22;31888;44.512;26.104;2022-08-21T01:57:11;23.50;97.30
46159;DHT22;31888;44.512;26.104;2022-08-21T01:59:16;23.50;97.30
46159;DHT22;31888;44.512;26.104;2022-08-21T02:01:20;23.40;97.60
46159;DHT22;31888;44.512;26.104;2022-08-21T02:03:25;23.40;97.70
46159;DHT22;31888;44.512;26.104;2022-08-21T02:05:37;23.30;97.80
46159;DHT22;31888;44.512;26.104;2022-08-21T02:07:44;23.30;98.20
46159;DHT22;31888;44.512;26.104;2022-08-21T02:09:49;23.30;98.00
46159;DHT22;31888;44.512;26.104;2022-08-21T02:11:56;23.40;98.00
46159;DHT22;31888;44.512;26.104;2022-08-21T02:14:01;23.30;98.00
46159;DHT22;31888;44.512;26.104;2022-08-21T02:16:06;23.10;98.40
46159;DHT22;31888;44.512;26.104;2022-08-21T02:18:11;23.10;98.70
46159;DHT22;31888;44.512;26.104;2022-08-21T02:20:19;23.20;98.70
46159;DHT22;31888;44.512;26.104;2022-08-21T02:22:24;23.20;98.70
46159;DHT22;31888;44.512;26.104;2022-08-21T02:24:28;23.10;98.80
46159;DHT22;31888;44.512;26.104;2022-08-21T02:26:33;23.20;98.80
46159;DHT22;31888;44.512;26.104;2022-08-21T02:28:39;23.20;98.80
46159;DHT22;31888;44.512;26.104;2022-08-21T02:30:46;23.20;98.80
46159;DHT22;31888;44.512;26.104;2022-08-21T02:32:51;23.20;98.90
46159;DHT22;31888;44.512;26.104;2022-08-21T02:34:55;23.20;98.90
46159;DHT22;31888;44.512;26.104;2022-08-21T02:36:59;23.10;99.00
46159;DHT22;31888;44.512;26.104;2022-08-21T02:39:03;23.10;99.20
46159;DHT22;31888;44.512;26.104;2022-08-21T02:41:12;23.10;99.40
46159;DHT22;31888;44.512;26.104;2022-08-21T02:43:18;23.10;99.40
46159;DHT22;31888;44.512;26.104;2022-08-21T02:45:25;23.20;99.00
46159;DHT22;31888;44.512;26.104;2022-08-21T02:47:30;23.30;99.00
46159;DHT22;31888;44.512;26.104;2022-08-21T02:49:35;23.30;98.90
46159;DHT22;31888;44.512;26.104;2022-08-21T02:51:39;23.40;98.70
46159;DHT22;31888;44.512;26.104;2022-08-21T02:53:45;23.50;98.70
46159;DHT22;31888;44.512;26.104;2022-08-21T02:55:51;23.40;98.70
46159;DHT22;31888;44.512;26.104;2022-08-21T02:57:56;23.50;98.70
46159;DHT22;31888;44.512;26.104;2022-08-21T03:00:02;23.50;98.60
46159;DHT22;31888;44.512;26.104;2022-08-21T03:02:08;23.50;98.70
46159;DHT22;31888;44.512;26.104;2022-08-21T03:04:13;23.50;98.70
46159;DHT22;31888;44.512;26.104;2022-08-21T03:06:20;23.30;99.00
46159;DHT22;31888;44.512;26.104;2022-08-21T03:08:25;23.20;99.40
46159;DHT22;31888;44.512;26.104;2022-08-21T03:10:29;23.10;99.60
46159;DHT22;31888;44.512;26.104;2022-08-21T03:12:35;23.00;99.70
46159;DHT22;31888;44.512;26.104;2022-08-21T03:14:39;23.00;99.90
46159;DHT22;31888;44.512;26.104;2022-08-21T03:16:44;23.00;99.90
46159;DHT22;31888;44.512;26.104;2022-08-21T03:18:50;23.00;99.90
46159;DHT22;31888;44.512;26.104;2022-08-21T03:20:56;23.10;99.80
46159;DHT22;31888;44.512;26.104;2022-08-21T03:23:02;23.20;99.60
46159;DHT22;31888;44.512;26.104;2022-08-21T03:25:14;23.20;99.70
46159;DHT22;31888;44.512;26.104;2022-08-21T03:27:19;23.30;99.50
46159;DHT22;31888;44.512;26.104;2022-08-21T03:29:25;23.50;99.20
46159;DHT22;31888;44.512;26.104;2022-08-21T03:31:29;23.60;99.00
46159;DHT22;31888;44.512;26.104;2022-08-21T03:33:34;23.70;98.70
46159;DHT22;31888;44.512;26.104;2022-08-21T03:35:40;23.70;98.50
46159;DHT22;31888;44.512;26.104;2022-08-21T03:37:46;23.80;98.30
46159;DHT22;31888;44.512;26.104;2022-08-21T03:39:50;23.90;98.20
46159;DHT22;31888;44.512;26.104;2022-08-21T03:41:55;23.90;98.10
46159;DHT22;31888;44.512;26.104;2022-08-21T03:43:58;24.00;98.30
46159;DHT22;31888;44.512;26.104;2022-08-21T03:46:04;24.20;97.60
46159;DHT22;31888;44.512;26.104;2022-08-21T03:48:08;24.30;97.30
46159;DHT22;31888;44.512;26.104;2022-08-21T03:50:15;24.30;97.40
46159;DHT22;31888;44.512;26.104;2022-08-21T03:52:22;24.30;97.40
46159;DHT22;31888;44.512;26.104;2022-08-21T03:54:27;24.30;97.40
46159;DHT22;31888;44.512;26.104;2022-08-21T03:56:31;24.40;97.30
46159;DHT22;31888;44.512;26.104;2022-08-21T03:58:36;24.20;97.60
46159;DHT22;31888;44.512;26.104;2022-08-21T04:00:41;24.30;97.40
46159;DHT22;31888;44.512;26.104;2022-08-21T04:02:45;24.20;97.70
46159;DHT22;31888;44.512;26.104;2022-08-21T04:04:50;24.20;97.80
46159;DHT22;31888;44.512;26.104;2022-08-21T04:06:54;24.30;97.50
46159;DHT22;31888;44.512;26.104;2022-08-21T04:09:00;24.30;97.40
46159;DHT22;31888;44.512;26.104;2022-08-21T04:11:05;24.30;97.60
46159;DHT22;31888;44.512;26.104;2022-08-21T04:13:10;24.30;97.20
46159;DHT22;31888;44.512;26.104;2022-08-21T04:15:14;24.40;97.40
46159;DHT22;31888;44.512;26.104;2022-08-21T04:17:19;24.50;97.20
46159;DHT22;31888;44.512;26.104;2022-08-21T04:19:23;24.50;97.20
46159;DHT22;31888;44.512;26.104;2022-08-21T04:21:28;24.70;97.00
46159;DHT22;31888;44.512;26.104;2022-08-21T04:23:33;24.70;97.10
46159;DHT22;31888;44.512;26.104;2022-08-21T04:25:39;24.70;97.00
46159;DHT22;31888;44.512;26.104;2022-08-21T04:27:48;24.60;97.10
46159;DHT22;31888;44.512;26.104;2022-08-21T04:29:53;24.80;96.80
46159;DHT22;31888;44.512;26.104;2022-08-21T04:31:58;24.90;96.40
46159;DHT22;31888;44.512;26.104;2022-08-21T04:34:02;25.00;96.30
46159;DHT22;31888;44.512;26.104;2022-08-21T04:36:08;25.00;96.60
46159;DHT22;31888;44.512;26.104;2022-08-21T04:38:12;25.20;96.10
46159;DHT22;31888;44.512;26.104;2022-08-21T04:40:19;25.20;96.40
46159;DHT22;31888;44.512;26.104;2022-08-21T04:42:26;25.20;96.00
46159;DHT22;31888;44.512;26.104;2022-08-21T04:44:31;25.30;95.90
46159;DHT22;31888;44.512;26.104;2022-08-21T04:46:35;25.30;95.70
46159;DHT22;31888;44.512;26.104;2022-08-21T04:48:40;25.50;95.70
46159;DHT22;31888;44.512;26.104;2022-08-21T04:50:49;25.80;95.10
46159;DHT22;31888;44.512;26.104;2022-08-21T04:52:54;26.00;94.80
46159;DHT22;31888;44.512;26.104;2022-08-21T04:55:01;25.90;94.80
46159;DHT22;31888;44.512;26.104;2022-08-21T04:57:07;25.80;95.00
46159;DHT22;31888;44.512;26.104;2022-08-21T04:59:17;25.70;95.00
46159;DHT22;31888;44.512;26.104;2022-08-21T05:01:24;25.60;95.20
46159;DHT22;31888;44.512;26.104;2022-08-21T05:03:30;25.80;95.30
46159;DHT22;31888;44.512;26.104;2022-08-21T05:05:36;25.90;95.00
46159;DHT22;31888;44.512;26.104;2022-08-21T05:07:41;26.20;94.50
46159;DHT22;31888;44.512;26.104;2022-08-21T05:09:46;26.50;94.20
46159;DHT22;31888;44.512;26.104;2022-08-21T05:11:51;26.90;93.60
46159;DHT22;31888;44.512;26.104;2022-08-21T05:13:55;27.30;93.10
46159;DHT22;31888;44.512;26.104;2022-08-21T05:16:01;27.30;92.80
46159;DHT22;31888;44.512;26.104;2022-08-21T05:18:06;27.30;92.80
46159;DHT22;31888;44.512;26.104;2022-08-21T05:20:11;27.60;92.50
46159;DHT22;31888;44.512;26.104;2022-08-21T05:22:19;28.50;91.50
46159;DHT22;31888;44.512;26.104;2022-08-21T05:24:23;28.70;90.80
46159;DHT22;31888;44.512;26.104;2022-08-21T05:26:28;28.60;90.70
46159;DHT22;31888;44.512;26.104;2022-08-21T05:28:33;28.60;90.70
46159;DHT22;31888;44.512;26.104;2022-08-21T05:30:39;28.50;90.90
46159;DHT22;31888;44.512;26.104;2022-08-21T05:32:45;28.50;90.40
46159;DHT22;31888;44.512;26.104;2022-08-21T05:34:50;28.70;90.40
46159;DHT22;31888;44.512;26.104;2022-08-21T05:36:54;28.80;90.20
46159;DHT22;31888;44.512;26.104;2022-08-21T05:38:59;28.80;89.80
46159;DHT22;31888;44.512;26.104;2022-08-21T05:41:03;28.90;90.00
46159;DHT22;31888;44.512;26.104;2022-08-21T05:43:08;29.40;89.80
46159;DHT22;31888;44.512;26.104;2022-08-21T05:45:12;29.60;88.10
46159;DHT22;31888;44.512;26.104;2022-08-21T05:47:16;29.50;87.80
46159;DHT22;31888;44.512;26.104;2022-08-21T05:49:22;29.60;88.00
46159;DHT22;31888;44.512;26.104;2022-08-21T05:51:27;29.90;87.00
46159;DHT22;31888;44.512;26.104;2022-08-21T05:53:31;29.80;86.30
46159;DHT22;31888;44.512;26.104;2022-08-21T05:55:36;29.60;86.40
46159;DHT22;31888;44.512;26.104;2022-08-21T05:57:46;29.60;86.90
46159;DHT22;31888;44.512;26.104;2022-08-21T05:59:52;29.90;86.50
46159;DHT22;31888;44.512;26.104;2022-08-21T06:01:57;30.00;85.80
46159;DHT22;31888;44.512;26.104;2022-08-21T06:04:07;29.60;86.90
46159;DHT22;31888;44.512;26.104;2022-08-21T06:06:13;29.40;87.70
46159;DHT22;31888;44.512;26.104;2022-08-21T06:08:18;29.10;88.40
46159;DHT22;31888;44.512;26.104;2022-08-21T06:10:22;29.00;88.30
46159;DHT22;31888;44.512;26.104;2022-08-21T06:12:27;29.10;88.80
46159;DHT22;31888;44.512;26.104;2022-08-21T06:14:31;29.10;87.90
46159;DHT22;31888;44.512;26.104;2022-08-21T06:16:35;29.20;88.00
46159;DHT22;31888;44.512;26.104;2022-08-21T06:18:40;29.00;87.80
46159;DHT22;31888;44.512;26.104;2022-08-21T06:20:44;29.10;87.90
46159;DHT22;31888;44.512;26.104;2022-08-21T06:22:50;29.10;87.60
46159;DHT22;31888;44.512;26.104;2022-08-21T06:24:55;29.10;88.60
46159;DHT22;31888;44.512;26.104;2022-08-21T06:27:04;29.40;87.80
46159;DHT22;31888;44.512;26.104;2022-08-21T06:29:12;29.50;86.50
46159;DHT22;31888;44.512;26.104;2022-08-21T06:31:21;29.80;85.30
46159;DHT22;31888;44.512;26.104;2022-08-21T06:33:26;29.80;84.80
46159;DHT22;31888;44.512;26.104;2022-08-21T06:35:35;29.80;84.80
46159;DHT22;31888;44.512;26.104;2022-08-21T06:37:43;30.10;84.50
46159;DHT22;31888;44.512;26.104;2022-08-21T06:39:49;29.90;84.30
46159;DHT22;31888;44.512;26.104;2022-08-21T06:41:54;29.80;84.60
46159;DHT22;31888;44.512;26.104;2022-08-21T06:44:03;30.00;85.40
46159;DHT22;31888;44.512;26.104;2022-08-21T06:46:08;30.10;84.40
46159;DHT22;31888;44.512;26.104;2022-08-21T06:48:12;30.00;84.30
46159;DHT22;31888;44.512;26.104;2022-08-21T06:50:21;29.60;85.00
46159;DHT22;31888;44.512;26.104;2022-08-21T06:52:30;29.90;84.90
46159;DHT22;31888;44.512;26.104;2022-08-21T06:54:34;30.00;83.80
46159;DHT22;31888;44.512;26.104;2022-08-21T06:56:40;30.00;83.40
46159;DHT22;31888;44.512;26.104;2022-08-21T06:58:45;30.30;83.10
46159;DHT22;31888;44.512;26.104;2022-08-21T07:00:49;30.30;83.40
46159;DHT22;31888;44.512;26.104;2022-08-21T07:03:02;30.50;82.90
46159;DHT22;31888;44.512;26.104;2022-08-21T07:05:06;30.90;81.40
46159;DHT22;31888;44.512;26.104;2022-08-21T07:07:20;30.80;81.10
46159;DHT22;31888;44.512;26.104;2022-08-21T07:09:24;30.40;81.20
46159;DHT22;31888;44.512;26.104;2022-08-21T07:11:29;30.50;81.40
46159;DHT22;31888;44.512;26.104;2022-08-21T07:13:47;30.60;80.50
46159;DHT22;31888;44.512;26.104;2022-08-21T07:15:51;30.40;80.70
46159;DHT22;31888;44.512;26.104;2022-08-21T07:17:56;30.20;81.60
46159;DHT22;31888;44.512;26.104;2022-08-21T07:20:01;30.40;81.80
46159;DHT22;31888;44.512;26.104;2022-08-21T07:26:08;30.60;80.40
46159;DHT22;31888;44.512;26.104;2022-08-21T07:28:13;30.70;79.60
46159;DHT22;31888;44.512;26.104;2022-08-21T07:30:18;30.70;79.40
46159;DHT22;31888;44.512;26.104;2022-08-21T07:32:23;30.80;79.30
46159;DHT22;31888;44.512;26.104;2022-08-21T07:34:27;30.70;78.10
46159;DHT22;31888;44.512;26.104;2022-08-21T07:36:38;30.80;78.40
46159;DHT22;31888;44.512;26.104;2022-08-21T07:38:45;31.00;77.20
46159;DHT22;31888;44.512;26.104;2022-08-21T07:40:50;31.00;77.70
46159;DHT22;31888;44.512;26.104;2022-08-21T07:42:55;31.00;76.80
46159;DHT22;31888;44.512;26.104;2022-08-21T07:45:00;31.20;77.00
46159;DHT22;31888;44.512;26.104;2022-08-21T07:47:06;31.30;76.70
46159;DHT22;31888;44.512;26.104;2022-08-21T07:49:10;31.20;76.30
46159;DHT22;31888;44.512;26.104;2022-08-21T07:51:16;31.40;76.10
46159;DHT22;31888;44.512;26.104;2022-08-21T07:53:21;31.70;75.70
46159;DHT22;31888;44.512;26.104;2022-08-21T07:55:25;31.50;73.00
46159;DHT22;31888;44.512;26.104;2022-08-21T07:57:29;31.60;74.40
46159;DHT22;31888;44.512;26.104;2022-08-21T07:59:35;31.80;73.80
46159;DHT22;31888;44.512;26.104;2022-08-21T08:01:39;31.90;73.70
46159;DHT22;31888;44.512;26.104;2022-08-21T08:03:45;31.90;73.30
46159;DHT22;31888;44.512;26.104;2022-08-21T08:05:50;31.70;72.50
46159;DHT22;31888;44.512;26.104;2022-08-21T08:07:55;31.50;73.20
46159;DHT22;31888;44.512;26.104;2022-08-21T08:10:03;31.80;73.10
46159;DHT22;31888;44.512;26.104;2022-08-21T08:12:09;31.70;73.20
46159;DHT22;31888;44.512;26.104;2022-08-21T08:14:20;31.60;72.10
46159;DHT22;31888;44.512;26.104;2022-08-21T08:16:38;32.00;72.00
46159;DHT22;31888;44.512;26.104;2022-08-21T08:18:56;31.90;71.60
46159;DHT22;31888;44.512;26.104;2022-08-21T08:21:48;31.90;70.60
46159;DHT22;31888;44.512;26.104;2022-08-21T08:24:29;32.10;71.10
46159;DHT22;31888;44.512;26.104;2022-08-21T08:26:56;32.30;69.60
46159;DHT22;31888;44.512;26.104;2022-08-21T08:29:30;32.40;69.80
46159;DHT22;31888;44.512;26.104;2022-08-21T08:31:44;32.90;68.30
46159;DHT22;31888;44.512;26.104;2022-08-21T08:34:05;32.90;69.10
46159;DHT22;31888;44.512;26.104;2022-08-21T08:36:49;32.90;67.90
46159;DHT22;31888;44.512;26.104;2022-08-21T08:39:34;32.30;68.80
46159;DHT22;31888;44.512;26.104;2022-08-21T08:42:05;32.00;68.70
46159;DHT22;31888;44.512;26.104;2022-08-21T08:44:32;32.30;68.90
46159;DHT22;31888;44.512;26.104;2022-08-21T08:46:41;32.50;66.60
46159;DHT22;31888;44.512;26.104;2022-08-21T08:48:52;32.60;67.50
46159;DHT22;31888;44.512;26.104;2022-08-21T08:51:01;32.90;67.60
46159;DHT22;31888;44.512;26.104;2022-08-21T08:53:11;32.80;67.50
46159;DHT22;31888;44.512;26.104;2022-08-21T08:55:32;32.80;67.60
46159;DHT22;31888;44.512;26.104;2022-08-21T08:57:38;32.90;66.60
46159;DHT22;31888;44.512;26.104;2022-08-21T08:59:47;33.20;66.90
46159;DHT22;31888;44.512;26.104;2022-08-21T09:02:04;33.10;66.50
46159;DHT22;31888;44.512;26.104;2022-08-21T09:04:10;33.40;67.60
46159;DHT22;31888;44.512;26.104;2022-08-21T09:06:41;33.80;65.50
46159;DHT22;31888;44.512;26.104;2022-08-21T09:08:59;33.70;65.70
46159;DHT22;31888;44.512;26.104;2022-08-21T09:11:10;33.80;65.60
46159;DHT22;31888;44.512;26.104;2022-08-21T09:13:26;34.20;64.90
46159;DHT22;31888;44.512;26.104;2022-08-21T09:15:35;33.50;65.00
46159;DHT22;31888;44.512;26.104;2022-08-21T09:17:55;33.00;66.30
46159;DHT22;31888;44.512;26.104;2022-08-21T09:20:18;33.10;66.60
46159;DHT22;31888;44.512;26.104;2022-08-21T09:22:36;33.40;66.90
46159;DHT22;31888;44.512;26.104;2022-08-21T09:24:49;33.60;66.30
46159;DHT22;31888;44.512;26.104;2022-08-21T09:27:04;33.60;66.70
46159;DHT22;31888;44.512;26.104;2022-08-21T09:29:11;33.60;65.50
46159;DHT22;31888;44.512;26.104;2022-08-21T09:31:22;33.90;65.00
46159;DHT22;31888;44.512;26.104;2022-08-21T09:33:30;33.90;64.80
46159;DHT22;31888;44.512;26.104;2022-08-21T09:35:50;33.40;65.30
46159;DHT22;31888;44.512;26.104;2022-08-21T09:38:09;32.60;66.00
46159;DHT22;31888;44.512;26.104;2022-08-21T09:40:21;32.10;66.40
46159;DHT22;31888;44.512;26.104;2022-08-21T09:42:30;31.80;67.90
46159;DHT22;31888;44.512;26.104;2022-08-21T09:44:40;31.60;67.80
46159;DHT22;31888;44.512;26.104;2022-08-21T09:46:50;31.60;68.00
46159;DHT22;31888;44.512;26.104;2022-08-21T09:48:58;32.00;67.40
46159;DHT22;31888;44.512;26.104;2022-08-21T09:51:09;32.10;67.40
46159;DHT22;31888;44.512;26.104;2022-08-21T09:53:20;32.20;67.30
46159;DHT22;31888;44.512;26.104;2022-08-21T09:55:31;32.10;66.80
46159;DHT22;31888;44.512;26.104;2022-08-21T09:57:55;32.00;67.50
46159;DHT22;31888;44.512;26.104;2022-08-21T10:00:08;31.80;67.50
46159;DHT22;31888;44.512;26.104;2022-08-21T10:02:26;31.80;66.70
46159;DHT22;31888;44.512;26.104;2022-08-21T10:04:34;31.60;66.80
46159;DHT22;31888;44.512;26.104;2022-08-21T10:06:38;31.60;67.30
46159;DHT22;31888;44.512;26.104;2022-08-21T10:08:45;32.00;67.00
46159;DHT22;31888;44.512;26.104;2022-08-21T10:10:54;32.00;66.80
46159;DHT22;31888;44.512;26.104;2022-08-21T10:13:05;31.70;66.10
46159;DHT22;31888;44.512;26.104;2022-08-21T10:15:18;31.50;66.90
46159;DHT22;31888;44.512;26.104;2022-08-21T10:17:28;31.50;67.50
46159;DHT22;31888;44.512;26.104;2022-08-21T10:19:40;31.50;66.70
46159;DHT22;31888;44.512;26.104;2022-08-21T10:21:59;31.40;67.40
46159;DHT22;31888;44.512;26.104;2022-08-21T10:24:17;31.50;67.50
46159;DHT22;31888;44.512;26.104;2022-08-21T10:26:45;31.50;67.30
46159;DHT22;31888;44.512;26.104;2022-08-21T10:28:57;31.60;67.80
46159;DHT22;31888;44.512;26.104;2022-08-21T10:31:12;31.70;66.80
46159;DHT22;31888;44.512;26.104;2022-08-21T10:33:27;31.90;67.20
46159;DHT22;31888;44.512;26.104;2022-08-21T10:35:36;32.30;66.50
46159;DHT22;31888;44.512;26.104;2022-08-21T10:37:56;32.80;65.70
46159;DHT22;31888;44.512;26.104;2022-08-21T10:40:15;33.10;64.70
46159;DHT22;31888;44.512;26.104;2022-08-21T10:42:31;33.00;65.00
46159;DHT22;31888;44.512;26.104;2022-08-21T10:44:44;33.00;65.70
46159;DHT22;31888;44.512;26.104;2022-08-21T10:46:54;32.80;65.10
46159;DHT22;31888;44.512;26.104;2022-08-21T10:49:12;32.40;65.10
46159;DHT22;31888;44.512;26.104;2022-08-21T10:51:26;32.30;65.60
46159;DHT22;31888;44.512;26.104;2022-08-21T10:53:47;32.10;66.10
46159;DHT22;31888;44.512;26.104;2022-08-21T10:56:01;32.00;66.20
46159;DHT22;31888;44.512;26.104;2022-08-21T10:58:09;32.00;66.40
46159;DHT22;31888;44.512;26.104;2022-08-21T11:00:17;32.00;66.60
46159;DHT22;31888;44.512;26.104;2022-08-21T11:02:26;32.20;66.70
46159;DHT22;31888;44.512;26.104;2022-08-21T11:04:37;32.60;65.80
46159;DHT22;31888;44.512;26.104;2022-08-21T11:06:56;32.70;64.70
46159;DHT22;31888;44.512;26.104;2022-08-21T11:09:11;33.00;65.20
46159;DHT22;31888;44.512;26.104;2022-08-21T11:11:20;33.30;63.50
46159;DHT22;31888;44.512;26.104;2022-08-21T11:13:37;33.30;62.30
46159;DHT22;31888;44.512;26.104;2022-08-21T11:15:49;33.20;63.20
46159;DHT22;31888;44.512;26.104;2022-08-21T11:18:04;33.40;63.40
46159;DHT22;31888;44.512;26.104;2022-08-21T11:20:17;33.40;63.50
46159;DHT22;31888;44.512;26.104;2022-08-21T11:22:28;33.10;63.70
46159;DHT22;31888;44.512;26.104;2022-08-21T11:24:44;33.10;64.10
46159;DHT22;31888;44.512;26.104;2022-08-21T11:27:00;32.90;65.20
46159;DHT22;31888;44.512;26.104;2022-08-21T11:29:13;32.80;66.10
46159;DHT22;31888;44.512;26.104;2022-08-21T11:31:31;32.80;66.30
46159;DHT22;31888;44.512;26.104;2022-08-21T11:33:52;32.80;66.00
46159;DHT22;31888;44.512;26.104;2022-08-21T11:36:02;32.80;66.20
46159;DHT22;31888;44.512;26.104;2022-08-21T11:38:27;32.70;66.40
46159;DHT22;31888;44.512;26.104;2022-08-21T11:40:52;32.60;67.20
46159;DHT22;31888;44.512;26.104;2022-08-21T11:43:06;32.10;68.00
46159;DHT22;31888;44.512;26.104;2022-08-21T11:45:22;32.10;68.50
46159;DHT22;31888;44.512;26.104;2022-08-21T11:47:42;32.00;68.50
46159;DHT22;31888;44.512;26.104;2022-08-21T11:50:04;31.90;68.90
46159;DHT22;31888;44.512;26.104;2022-08-21T11:52:34;32.00;69.40
46159;DHT22;31888;44.512;26.104;2022-08-21T11:54:43;31.80;68.30
46159;DHT22;31888;44.512;26.104;2022-08-21T11:56:53;31.70;68.20
46159;DHT22;31888;44.512;26.104;2022-08-21T11:59:09;31.50;68.50
46159;DHT22;31888;44.512;26.104;2022-08-21T12:01:19;31.40;68.80
46159;DHT22;31888;44.512;26.104;2022-08-21T12:03:28;31.40;68.60
46159;DHT22;31888;44.512;26.104;2022-08-21T12:05:39;31.50;68.30
46159;DHT22;31888;44.512;26.104;2022-08-21T12:07:45;31.60;68.60
46159;DHT22;31888;44.512;26.104;2022-08-21T12:09:59;31.30;68.10
46159;DHT22;31888;44.512;26.104;2022-08-21T12:12:26;31.20;68.60
46159;DHT22;31888;44.512;26.104;2022-08-21T12:14:39;31.30;68.60
46159;DHT22;31888;44.512;26.104;2022-08-21T12:16:47;31.40;68.30
46159;DHT22;31888;44.512;26.104;2022-08-21T12:19:09;31.40;68.10
46159;DHT22;31888;44.512;26.104;2022-08-21T12:21:21;31.50;68.20
46159;DHT22;31888;44.512;26.104;2022-08-21T12:23:30;31.60;67.60
46159;DHT22;31888;44.512;26.104;2022-08-21T12:25:38;31.60;67.90
46159;DHT22;31888;44.512;26.104;2022-08-21T12:27:45;31.60;67.70
46159;DHT22;31888;44.512;26.104;2022-08-21T12:29:55;31.70;68.10
46159;DHT22;31888;44.512;26.104;2022-08-21T12:32:02;31.90;67.90
46159;DHT22;31888;44.512;26.104;2022-08-21T12:34:10;31.90;67.70
46159;DHT22;31888;44.512;26.104;2022-08-21T12:36:26;32.00;67.80
46159;DHT22;31888;44.512;26.104;2022-08-21T12:38:48;31.90;67.00
46159;DHT22;31888;44.512;26.104;2022-08-21T12:40:56;32.00;66.80
46159;DHT22;31888;44.512;26.104;2022-08-21T12:43:02;32.00;66.00
46159;DHT22;31888;44.512;26.104;2022-08-21T12:45:19;32.10;66.00
46159;DHT22;31888;44.512;26.104;2022-08-21T12:47:31;32.20;66.00
46159;DHT22;31888;44.512;26.104;2022-08-21T12:49:43;32.50;65.50
46159;DHT22;31888;44.512;26.104;2022-08-21T12:51:53;32.50;65.30
46159;DHT22;31888;44.512;26.104;2022-08-21T12:53:59;32.50;64.90
46159;DHT22;31888;44.512;26.104;2022-08-21T12:56:09;32.40;65.20
46159;DHT22;31888;44.512;26.104;2022-08-21T12:58:17;32.40;65.60
46159;DHT22;31888;44.512;26.104;2022-08-21T13:00:26;32.30;64.40
46159;DHT22;31888;44.512;26.104;2022-08-21T13:02:33;32.20;64.20
46159;DHT22;31888;44.512;26.104;2022-08-21T13:04:40;32.10;64.00
46159;DHT22;31888;44.512;26.104;2022-08-21T13:06:47;32.10;64.10
46159;DHT22;31888;44.512;26.104;2022-08-21T13:09:05;32.20;64.20
46159;DHT22;31888;44.512;26.104;2022-08-21T13:11:10;32.30;64.20
46159;DHT22;31888;44.512;26.104;2022-08-21T13:13:34;32.40;64.20
46159;DHT22;31888;44.512;26.104;2022-08-21T13:15:50;32.40;64.60
46159;DHT22;31888;44.512;26.104;2022-08-21T13:18:01;32.50;65.50
46159;DHT22;31888;44.512;26.104;2022-08-21T13:20:10;32.50;64.90
46159;DHT22;31888;44.512;26.104;2022-08-21T13:22:24;32.50;64.30
46159;DHT22;31888;44.512;26.104;2022-08-21T13:24:37;32.60;64.60
46159;DHT22;31888;44.512;26.104;2022-08-21T13:26:46;32.70;64.80